createdAt,value
2019-04-10T00:01:21.814Z,46.11
2019-04-10T00:03:54.917Z,46.12
2019-04-10T00:06:27.906Z,46.11
2019-04-10T00:09:00.865Z,46.12
2019-04-10T00:11:34.484Z,46.12
2019-04-10T00:14:08.266Z,46.14
2019-04-10T00:16:40.975Z,46.14
2019-04-10T00:19:14.806Z,46.16
2019-04-10T00:21:47.893Z,46.16
2019-04-10T00:24:20.617Z,46.15
2019-04-10T00:26:53.080Z,46.16
2019-04-10T00:29:25.570Z,46.17
2019-04-10T00:32:01.351Z,46.17
2019-04-10T00:34:33.522Z,46.20
2019-04-10T00:37:06.546Z,46.24
2019-04-10T00:39:39.109Z,46.26
2019-04-10T00:42:12.635Z,46.29
2019-04-10T00:44:45.931Z,46.30
2019-04-10T00:47:19.134Z,46.36
2019-04-10T00:49:53.749Z,46.38
2019-04-10T00:52:28.779Z,46.39
2019-04-10T00:55:01.578Z,46.41
2019-04-10T00:57:34.465Z,46.40
2019-04-10T01:00:08.962Z,46.40
2019-04-10T01:02:41.361Z,46.42
2019-04-10T01:05:13.912Z,46.44
2019-04-10T01:07:47.092Z,46.41
2019-04-10T01:10:20.358Z,46.46
2019-04-10T01:12:54.458Z,46.49
2019-04-10T01:15:27.339Z,46.49
2019-04-10T01:18:00.015Z,46.49
2019-04-10T01:20:33.365Z,46.51
2019-04-10T01:23:06.008Z,46.44
2019-04-10T01:25:40.822Z,46.43
2019-04-10T01:28:14.195Z,46.42
2019-04-10T01:30:46.718Z,46.43
2019-04-10T01:33:19.126Z,46.44
2019-04-10T01:35:51.718Z,46.45
2019-04-10T01:38:25.119Z,46.42
2019-04-10T01:40:59.423Z,46.41
2019-04-10T01:43:32.953Z,46.43
2019-04-10T01:46:06.270Z,46.43
2019-04-10T01:48:44.991Z,46.49
2019-04-10T01:51:17.738Z,46.50
2019-04-10T01:53:50.860Z,46.50
2019-04-10T01:56:30.187Z,46.49
2019-04-10T01:58:57.835Z,46.51
2019-04-10T02:01:34.933Z,46.55
2019-04-10T02:04:08.899Z,46.55
2019-04-10T02:06:41.670Z,46.60
2019-04-10T02:09:15.042Z,46.61
2019-04-10T02:11:48.165Z,46.64
2019-04-10T02:14:20.695Z,46.69
2019-04-10T02:16:53.463Z,46.69
2019-04-10T02:19:26.181Z,46.73
2019-04-10T02:21:58.925Z,46.72
2019-04-10T02:24:31.425Z,46.77
2019-04-10T02:27:03.893Z,46.82
2019-04-10T02:29:36.873Z,46.84
2019-04-10T02:32:10.323Z,46.86
2019-04-10T02:34:43.790Z,46.88
2019-04-10T02:37:19.122Z,46.91
2019-04-10T02:39:56.290Z,46.89
2019-04-10T02:42:26.841Z,46.86
2019-04-10T02:44:59.641Z,46.83
2019-04-10T02:47:32.427Z,46.81
2019-04-10T02:50:07.763Z,46.82
2019-04-10T02:52:41.200Z,46.84
2019-04-10T02:55:14.463Z,46.83
2019-04-10T02:57:47.438Z,46.85
2019-04-10T03:00:22.293Z,46.86
2019-04-10T03:02:55.534Z,46.87
2019-04-10T03:05:30.119Z,46.90
2019-04-10T03:08:04.924Z,46.95
2019-04-10T03:10:44.448Z,46.98
2019-04-10T03:13:13.775Z,47.03
2019-04-10T03:15:47.631Z,47.04
2019-04-10T03:18:20.951Z,47.08
2019-04-10T03:20:54.350Z,47.15
2019-04-10T03:23:26.893Z,47.22
2019-04-10T03:25:59.584Z,47.25
2019-04-10T03:28:33.515Z,47.28
2019-04-10T03:31:07.950Z,47.31
2019-04-10T03:34:05.540Z,47.36
2019-04-10T03:36:39.955Z,47.41
2019-04-10T03:39:13.261Z,47.47
2019-04-10T03:41:46.060Z,47.51
2019-04-10T03:44:18.794Z,47.53
2019-04-10T03:46:52.825Z,47.55
2019-04-10T03:49:25.782Z,47.57
2019-04-10T03:51:58.546Z,47.63
2019-04-10T03:54:32.217Z,47.67
2019-04-10T03:57:04.720Z,47.69
2019-04-10T03:59:40.009Z,47.73
2019-04-10T04:02:11.762Z,47.75
2019-04-10T04:04:44.530Z,47.78
2019-04-10T04:07:17.683Z,47.82
2019-04-10T04:09:51.506Z,47.88
2019-04-10T04:12:24.096Z,47.91
2019-04-10T04:14:56.988Z,47.90
2019-04-10T04:17:30.423Z,47.90
2019-04-10T04:20:04.343Z,47.92
2019-04-10T04:22:37.526Z,47.92
2019-04-10T04:25:13.384Z,47.91
2019-04-10T04:27:46.375Z,47.88
2019-04-10T04:30:20.459Z,47.87
2019-04-10T04:32:53.969Z,47.85
2019-04-10T04:35:27.688Z,47.88
2019-04-10T04:38:00.537Z,47.87
2019-04-10T04:40:33.529Z,47.88
2019-04-10T04:43:06.396Z,47.84
2019-04-10T04:45:39.216Z,47.84
2019-04-10T04:48:12.022Z,47.84
2019-04-10T04:50:44.447Z,47.83
2019-04-10T04:53:18.299Z,47.64
2019-04-10T04:55:51.465Z,47.48
2019-04-10T04:58:24.393Z,47.24
2019-04-10T05:00:58.590Z,47.00
2019-04-10T05:03:31.412Z,46.79
2019-04-10T05:06:03.977Z,46.58
2019-04-10T05:08:37.786Z,46.36
2019-04-10T05:11:10.449Z,46.18
2019-04-10T05:13:43.565Z,45.97
2019-04-10T05:16:18.611Z,45.80
2019-04-10T05:18:50.293Z,45.61
2019-04-10T05:21:23.235Z,45.46
2019-04-10T05:23:55.745Z,45.30
2019-04-10T05:26:28.218Z,45.18
2019-04-10T05:29:00.709Z,45.00
2019-04-10T05:31:34.226Z,44.77
2019-04-10T05:34:07.338Z,44.60
2019-04-10T05:36:40.063Z,44.50
2019-04-10T05:39:12.735Z,44.43
2019-04-10T05:41:46.932Z,44.34
2019-04-10T05:44:20.104Z,44.26
2019-04-10T05:46:52.862Z,44.18
2019-04-10T05:49:25.458Z,44.14
2019-04-10T05:51:57.971Z,44.08
2019-04-10T05:54:31.115Z,44.10
2019-04-10T05:57:04.354Z,44.17
2019-04-10T05:59:36.992Z,44.25
2019-04-10T06:02:09.687Z,44.29
2019-04-10T06:04:43.307Z,44.31
2019-04-10T06:07:16.971Z,44.37
2019-04-10T06:09:56.798Z,44.32
2019-04-10T06:12:24.351Z,44.32
2019-04-10T06:14:56.843Z,44.37
2019-04-10T06:17:30.177Z,44.44
2019-04-10T06:20:02.928Z,44.51
2019-04-10T06:22:36.884Z,44.62
2019-04-10T06:25:11.731Z,44.58
2019-04-10T06:27:45.080Z,44.46
2019-04-10T06:30:17.790Z,44.42
2019-04-10T06:32:51.643Z,44.31
2019-04-10T06:35:24.155Z,43.86
2019-04-10T06:37:56.914Z,44.16
2019-04-10T06:40:30.546Z,44.20
2019-04-10T06:43:04.341Z,44.10
2019-04-10T06:45:36.924Z,44.09
2019-04-10T06:48:10.852Z,44.08
2019-04-10T06:50:44.455Z,44.09
2019-04-10T06:53:18.623Z,44.03
2019-04-10T06:55:52.407Z,43.96
2019-04-10T06:58:25.598Z,43.79
2019-04-10T07:01:01.389Z,43.85
2019-04-10T07:03:45.804Z,43.90
2019-04-10T07:06:15.614Z,44.00
2019-04-10T07:08:46.318Z,44.08
2019-04-10T07:11:18.558Z,44.23
2019-04-10T07:13:53.865Z,44.22
2019-04-10T07:16:29.970Z,44.20
2019-04-10T07:19:04.325Z,44.17
2019-04-10T07:21:36.074Z,44.17
2019-04-10T07:24:12.369Z,44.17
2019-04-10T07:26:46.604Z,44.24
2019-04-10T07:29:21.893Z,44.40
2019-04-10T07:31:53.221Z,44.54
2019-04-10T07:34:28.523Z,44.59
2019-04-10T07:37:00.926Z,44.50
2019-04-10T07:39:35.057Z,44.39
2019-04-10T07:42:07.873Z,44.42
2019-04-10T07:44:40.858Z,44.41
2019-04-10T07:47:13.868Z,44.39
2019-04-10T07:49:46.447Z,44.41
2019-04-10T07:52:21.072Z,44.47
2019-04-10T07:54:54.558Z,44.65
2019-04-10T07:57:28.677Z,44.79
2019-04-10T08:00:01.393Z,44.73
2019-04-10T08:02:34.630Z,44.69
2019-04-10T08:05:08.220Z,44.67
2019-04-10T08:07:41.224Z,44.64
2019-04-10T08:10:15.730Z,44.60
2019-04-10T08:12:53.029Z,44.59
2019-04-10T08:15:23.419Z,44.61
2019-04-10T08:17:56.145Z,44.74
2019-04-10T08:20:29.169Z,44.87
2019-04-10T08:23:01.897Z,44.93
2019-04-10T08:25:35.370Z,44.89
2019-04-10T08:28:09.165Z,44.86
2019-04-10T08:30:42.188Z,44.82
2019-04-10T08:33:14.982Z,44.75
2019-04-10T08:35:47.576Z,44.69
2019-04-10T08:38:21.784Z,44.62
2019-04-10T08:40:55.074Z,44.58
2019-04-10T08:43:27.910Z,44.29
2019-04-10T08:46:01.802Z,44.31
2019-04-10T08:48:34.707Z,44.31
2019-04-10T08:51:07.211Z,44.15
2019-04-10T08:53:39.765Z,44.05
2019-04-10T08:56:12.965Z,43.86
2019-04-10T08:58:45.660Z,43.85
2019-04-10T09:01:18.078Z,43.77
2019-04-10T09:03:51.035Z,43.77
2019-04-10T09:06:23.451Z,43.69
2019-04-10T09:08:57.112Z,43.72
2019-04-10T09:11:32.301Z,43.53
2019-04-10T09:14:05.106Z,43.50
2019-04-10T09:16:38.470Z,43.50
2019-04-10T09:19:11.970Z,43.10
2019-04-10T09:21:45.760Z,43.32
2019-04-10T09:24:19.625Z,43.37
2019-04-10T09:26:52.855Z,43.23
2019-04-10T09:29:25.818Z,43.22
2019-04-10T09:31:58.591Z,43.27
2019-04-10T09:34:31.861Z,43.08
2019-04-10T09:37:05.801Z,43.11
2019-04-10T09:39:39.182Z,43.25
2019-04-10T09:42:12.010Z,43.27
2019-04-10T09:44:44.827Z,43.15
2019-04-10T09:47:18.409Z,42.97
2019-04-10T09:49:51.383Z,42.99
2019-04-10T09:52:23.891Z,42.94
2019-04-10T09:54:57.535Z,42.89
2019-04-10T09:57:30.373Z,43.07
2019-04-10T10:00:03.225Z,43.08
2019-04-10T10:02:36.314Z,43.03
2019-04-10T10:05:10.487Z,42.96
2019-04-10T10:07:43.511Z,42.73
2019-04-10T10:10:17.197Z,42.69
2019-04-10T10:12:50.564Z,42.70
2019-04-10T10:15:23.289Z,42.67
2019-04-10T10:17:55.758Z,42.78
2019-04-10T10:20:29.658Z,42.79
2019-04-10T10:23:03.339Z,42.49
2019-04-10T10:25:35.768Z,42.44
2019-04-10T10:28:09.105Z,42.55
2019-04-10T10:30:41.810Z,42.51
2019-04-10T10:33:15.326Z,42.50
2019-04-10T10:35:48.139Z,42.55
2019-04-10T10:38:23.170Z,42.52
2019-04-10T10:40:57.031Z,42.55
2019-04-10T10:43:29.870Z,42.58
2019-04-10T10:46:03.042Z,42.46
2019-04-10T10:48:36.070Z,42.51
2019-04-10T10:51:08.775Z,42.60
2019-04-10T10:53:41.563Z,42.67
2019-04-10T10:56:14.217Z,42.63
2019-04-10T10:58:46.814Z,42.60
2019-04-10T11:01:20.014Z,42.54
2019-04-10T11:03:52.443Z,42.54
2019-04-10T11:06:24.829Z,42.64
2019-04-10T11:08:58.033Z,42.69
2019-04-10T11:11:30.909Z,42.65
2019-04-10T11:14:04.403Z,42.63
2019-04-10T11:16:39.070Z,42.63
2019-04-10T11:19:13.065Z,42.64
2019-04-10T11:21:46.981Z,42.69
2019-04-10T11:24:19.721Z,42.79
2019-04-10T11:26:53.906Z,42.77
2019-04-10T11:29:26.540Z,42.68
2019-04-10T11:32:00.006Z,42.71
2019-04-10T11:34:34.110Z,42.71
2019-04-10T11:37:21.572Z,42.71
2019-04-10T11:39:44.999Z,42.68
2019-04-10T11:42:16.021Z,42.71
2019-04-10T11:44:50.738Z,42.79
2019-04-10T11:47:24.740Z,42.80
2019-04-10T11:49:59.322Z,42.79
2019-04-10T11:52:38.941Z,42.71
2019-04-10T11:55:12.723Z,42.62
2019-04-10T11:57:41.987Z,42.65
2019-04-10T12:00:20.383Z,42.64
2019-04-10T12:02:52.767Z,42.59
2019-04-10T12:05:25.850Z,42.48
2019-04-10T12:08:29.622Z,42.48
2019-04-10T12:13:08.644Z,42.50
2019-04-10T12:15:41.330Z,42.53
2019-04-10T12:18:14.152Z,42.41
2019-04-10T12:20:47.236Z,42.37
2019-04-10T12:23:21.538Z,42.40
2019-04-10T12:25:55.611Z,42.42
2019-04-10T12:28:29.786Z,42.48
2019-04-10T12:31:03.743Z,42.47
2019-04-10T12:33:36.435Z,42.43
2019-04-10T12:36:12.166Z,42.31
2019-04-10T12:38:44.705Z,42.09
2019-04-10T12:41:17.369Z,42.02
2019-04-10T12:43:49.826Z,42.07
2019-04-10T12:46:22.424Z,42.17
2019-04-10T12:48:55.225Z,42.29
2019-04-10T12:51:27.792Z,42.32
2019-04-10T12:54:02.513Z,42.40
2019-04-10T12:56:35.075Z,42.42
2019-04-10T12:59:08.919Z,42.45
2019-04-10T13:01:41.840Z,42.42
2019-04-10T13:04:15.636Z,42.49
2019-04-10T13:06:52.264Z,42.50
2019-04-10T13:09:24.215Z,42.56
2019-04-10T13:11:56.991Z,42.55
2019-04-10T13:14:30.628Z,42.58
2019-04-10T13:17:03.287Z,42.64
2019-04-10T13:19:37.429Z,42.61
2019-04-10T13:22:11.610Z,42.53
2019-04-10T13:24:44.548Z,42.46
2019-04-10T13:27:17.329Z,42.48
2019-04-10T13:29:49.934Z,42.46
2019-04-10T13:32:23.409Z,42.39
2019-04-10T13:34:56.103Z,42.35
2019-04-10T13:37:28.479Z,42.25
2019-04-10T13:40:01.635Z,42.11
2019-04-10T13:42:34.854Z,42.20
2019-04-10T13:45:09.018Z,42.22
2019-04-10T13:47:41.545Z,42.27
2019-04-10T13:50:14.690Z,42.36
2019-04-10T13:52:52.237Z,42.37
2019-04-10T13:55:24.261Z,42.40
2019-04-10T13:57:57.334Z,42.36
2019-04-10T14:00:39.858Z,42.35
2019-04-10T14:03:12.488Z,42.29
2019-04-10T14:05:45.076Z,42.31
2019-04-10T14:08:18.732Z,42.36
2019-04-10T14:10:52.849Z,42.44
2019-04-10T14:13:25.867Z,42.48
2019-04-10T14:15:58.769Z,42.52
2019-04-10T14:18:31.426Z,42.53
2019-04-10T14:21:09.708Z,42.51
2019-04-10T14:23:39.559Z,42.52
2019-04-10T14:26:43.948Z,42.50
2019-04-10T14:29:18.482Z,42.50
2019-04-10T14:32:11.195Z,42.53
2019-04-10T14:34:44.732Z,42.54
2019-04-10T14:37:17.711Z,42.56
2019-04-10T14:39:51.555Z,42.60
2019-04-10T14:42:24.513Z,42.61
2019-04-10T14:44:57.149Z,42.65
2019-04-10T14:47:31.599Z,42.63
2019-04-10T14:50:05.767Z,42.59
2019-04-10T14:52:38.275Z,42.57
2019-04-10T14:55:10.783Z,42.55
2019-04-10T14:57:43.587Z,42.58
2019-04-10T15:00:34.826Z,42.59
2019-04-10T15:03:08.512Z,42.53
2019-04-10T15:05:48.646Z,42.52
2019-04-10T15:08:17.593Z,42.56
2019-04-10T15:10:50.552Z,42.57
2019-04-10T15:13:24.420Z,42.59
2019-04-10T15:15:58.738Z,42.60
2019-04-10T15:18:31.665Z,42.59
2019-04-10T15:21:04.826Z,42.59
2019-04-10T15:23:37.421Z,42.59
2019-04-10T15:26:09.876Z,42.63
2019-04-10T15:28:43.619Z,42.65
2019-04-10T15:31:17.295Z,42.71
2019-04-10T15:33:50.291Z,42.76
2019-04-10T15:36:22.878Z,42.76
2019-04-10T15:38:55.477Z,42.82
2019-04-10T15:41:28.412Z,42.91
2019-04-10T15:44:01.521Z,42.94
2019-04-10T15:46:35.284Z,42.97
2019-04-10T15:49:09.104Z,42.99
2019-04-10T15:51:41.590Z,43.06
2019-04-10T15:54:14.489Z,43.12
2019-04-10T15:56:46.988Z,43.14
2019-04-10T15:59:19.939Z,43.17
2019-04-10T16:01:52.785Z,43.24
2019-04-10T16:04:25.889Z,43.28
2019-04-10T16:06:58.470Z,43.28
2019-04-10T16:09:44.467Z,43.30
2019-04-10T16:12:18.617Z,43.32
2019-04-10T16:14:52.723Z,43.33
2019-04-10T16:17:42.653Z,43.39
2019-04-10T16:20:25.136Z,43.42
2019-04-10T16:23:06.231Z,43.40
2019-04-10T16:25:40.391Z,43.42
2019-04-10T16:28:13.142Z,43.46
2019-04-10T16:30:46.602Z,43.50
2019-04-10T16:33:19.934Z,43.58
2019-04-10T16:35:52.661Z,43.60
2019-04-10T16:38:25.731Z,43.61
2019-04-10T16:41:00.487Z,43.64
2019-04-10T16:43:33.597Z,43.64
2019-04-10T16:46:07.019Z,43.66
2019-04-10T16:48:40.064Z,43.66
2019-04-10T16:51:12.929Z,43.68
2019-04-10T16:53:45.600Z,43.68
2019-04-10T16:56:18.755Z,43.70
2019-04-10T16:58:52.179Z,43.71
2019-04-10T17:01:25.227Z,43.72
2019-04-10T17:03:58.625Z,43.72
2019-04-10T17:06:32.494Z,43.66
2019-04-10T17:09:08.535Z,43.69
2019-04-10T17:11:41.410Z,43.66
2019-04-10T17:14:15.172Z,43.71
2019-04-10T17:16:48.104Z,43.74
2019-04-10T17:19:21.547Z,43.78
2019-04-10T17:21:54.333Z,43.83
2019-04-10T17:24:27.141Z,43.85
2019-04-10T17:26:59.817Z,43.90
2019-04-10T17:29:33.322Z,43.90
2019-04-10T17:32:06.848Z,43.92
2019-04-10T17:34:39.548Z,43.95
2019-04-10T17:37:12.164Z,43.97
2019-04-10T17:39:44.662Z,44.00
2019-04-10T17:42:17.562Z,44.02
2019-04-10T17:44:51.122Z,44.03
2019-04-10T17:47:24.952Z,44.05
2019-04-10T17:49:58.076Z,44.09
2019-04-10T17:52:33.990Z,44.11
2019-04-10T17:55:05.738Z,44.16
2019-04-10T17:57:42.702Z,44.20
2019-04-10T18:00:35.703Z,44.22
2019-04-10T18:03:10.953Z,44.20
2019-04-10T18:05:44.718Z,44.19
2019-04-10T18:08:18.758Z,44.14
2019-04-10T18:10:54.106Z,44.18
2019-04-10T18:13:26.713Z,44.26
2019-04-10T18:16:00.114Z,44.26
2019-04-10T18:18:32.989Z,44.25
2019-04-10T18:21:06.694Z,44.25
2019-04-10T18:23:39.764Z,44.28
2019-04-10T18:26:14.113Z,44.30
2019-04-10T18:28:46.950Z,44.32
2019-04-10T18:31:23.549Z,44.35
2019-04-10T18:33:55.218Z,44.38
2019-04-10T18:36:28.050Z,44.43
2019-04-10T18:39:01.746Z,44.45
2019-04-10T18:41:34.233Z,44.46
2019-04-10T18:44:06.847Z,44.47
2019-04-10T18:46:39.553Z,44.47
2019-04-10T18:49:13.570Z,44.50
2019-04-10T18:51:46.016Z,44.55
2019-04-10T18:54:18.849Z,44.55
2019-04-10T18:56:51.434Z,44.56
2019-04-10T18:59:32.323Z,44.58
2019-04-10T19:02:39.150Z,44.56
2019-04-10T19:05:16.960Z,44.56
2019-04-10T19:07:50.284Z,44.61
2019-04-10T19:10:23.881Z,44.65
2019-04-10T19:12:57.230Z,44.64
2019-04-10T19:15:31.075Z,44.65
2019-04-10T19:18:03.979Z,44.67
2019-04-10T19:20:37.345Z,44.68
2019-04-10T19:23:10.272Z,44.67
2019-04-10T19:25:43.353Z,44.65
2019-04-10T19:28:28.024Z,44.68
2019-04-10T19:31:09.589Z,44.67
2019-04-10T19:33:35.277Z,44.65
2019-04-10T19:36:07.945Z,44.66
2019-04-10T19:38:41.343Z,44.67
2019-04-10T19:41:26.273Z,44.70
2019-04-10T19:43:48.535Z,44.75
2019-04-10T19:46:21.569Z,44.80
2019-04-10T19:48:55.460Z,44.84
2019-04-10T19:51:28.420Z,44.89
2019-04-10T19:54:03.942Z,44.94
2019-04-10T19:56:35.056Z,44.91
2019-04-10T19:59:08.398Z,44.92
2019-04-10T20:01:42.385Z,44.95
2019-04-10T20:04:14.839Z,44.96
2019-04-10T20:06:48.782Z,44.98
2019-04-10T20:09:22.179Z,44.99
2019-04-10T20:11:56.945Z,45.00
2019-04-10T20:14:28.870Z,44.98
2019-04-10T20:17:02.345Z,44.99
2019-04-10T20:19:35.141Z,44.99
2019-04-10T20:22:08.540Z,45.02
2019-04-10T20:24:41.223Z,45.03
2019-04-10T20:27:14.699Z,45.03
2019-04-10T20:29:47.725Z,45.05
2019-04-10T20:32:21.668Z,45.07
2019-04-10T20:34:54.201Z,45.09
2019-04-10T20:37:27.181Z,45.10
2019-04-10T20:39:59.789Z,45.15
2019-04-10T20:42:32.792Z,45.12
2019-04-10T20:45:05.498Z,45.14
2019-04-10T20:47:39.652Z,45.13
2019-04-10T20:50:12.822Z,45.13
2019-04-10T20:52:45.739Z,45.18
2019-04-10T20:55:18.155Z,45.17
2019-04-10T20:57:51.988Z,45.20
2019-04-10T21:00:39.185Z,45.20
2019-04-10T21:03:11.774Z,45.19
2019-04-10T21:05:44.566Z,45.22
2019-04-10T21:08:17.925Z,45.24
2019-04-10T21:10:51.375Z,45.27
2019-04-10T21:13:23.942Z,45.28
2019-04-10T21:15:56.635Z,45.33
2019-04-10T21:18:29.490Z,45.35
2019-04-10T21:21:02.366Z,45.38
2019-04-10T21:23:35.886Z,45.39
2019-04-10T21:26:10.251Z,45.41
2019-04-10T21:28:43.693Z,45.46
2019-04-10T21:31:32.379Z,45.47
2019-04-10T21:34:19.726Z,45.49
2019-04-10T21:36:53.302Z,45.49
2019-04-10T21:39:27.621Z,45.49
2019-04-10T21:42:12.091Z,45.50
2019-04-10T21:44:35.168Z,45.50
2019-04-10T21:47:08.818Z,45.57
2019-04-10T21:49:41.458Z,45.60
2019-04-10T21:52:14.324Z,45.64
2019-04-10T21:54:51.232Z,45.67
2019-04-10T21:57:20.933Z,45.67
2019-04-10T21:59:53.880Z,45.69
2019-04-10T22:02:27.336Z,45.68
2019-04-10T22:05:00.160Z,45.70
2019-04-10T22:07:50.930Z,45.75
2019-04-10T22:10:32.189Z,45.76
2019-04-10T22:13:05.881Z,45.79
2019-04-10T22:15:44.940Z,45.81
2019-04-10T22:18:19.085Z,45.85
2019-04-10T22:20:52.152Z,45.88
2019-04-10T22:23:26.519Z,45.90
2019-04-10T22:26:00.020Z,45.95
2019-04-10T22:28:32.940Z,45.95
2019-04-10T22:31:07.536Z,45.95
2019-04-10T22:33:40.622Z,45.98
2019-04-10T22:36:13.590Z,46.04
2019-04-10T22:38:49.699Z,46.03
2019-04-10T22:41:28.514Z,46.08
2019-04-10T22:43:57.031Z,46.11
2019-04-10T22:46:29.964Z,46.13
2019-04-10T22:49:02.325Z,46.15
2019-04-10T22:51:35.978Z,46.17
2019-04-10T22:54:08.836Z,46.19
2019-04-10T22:56:42.248Z,46.23
2019-04-10T22:59:15.619Z,46.25
2019-04-10T23:01:59.363Z,46.27
2019-04-10T23:04:23.256Z,46.26
2019-04-10T23:06:56.154Z,46.31
2019-04-10T23:09:28.923Z,46.35
2019-04-10T23:12:02.350Z,46.38
2019-04-10T23:14:36.517Z,46.39
2019-04-10T23:17:10.643Z,46.39
2019-04-10T23:19:44.402Z,46.42
2019-04-10T23:22:18.889Z,46.43
2019-04-10T23:24:54.008Z,46.45
2019-04-10T23:27:28.178Z,46.45
2019-04-10T23:30:05.625Z,46.46
2019-04-10T23:32:39.506Z,46.48
2019-04-10T23:35:13.606Z,46.47
2019-04-10T23:37:47.438Z,46.51
2019-04-10T23:40:21.184Z,46.53
2019-04-10T23:43:04.938Z,46.54
2019-04-10T23:45:29.344Z,46.55
2019-04-10T23:48:02.615Z,46.56
2019-04-10T23:50:36.520Z,46.61
2019-04-10T23:53:09.343Z,46.66
2019-04-10T23:55:42.151Z,46.68
2019-04-10T23:58:14.564Z,46.69
